createdAt,value
2023-04-22T00:00:03.554Z,100145.28
2023-04-22T00:01:03.242Z,100142.59
2023-04-22T00:01:43.291Z,100134.03
2023-04-22T00:02:24.201Z,100134.59
2023-04-22T00:03:08.619Z,100138.94
2023-04-22T00:03:51.345Z,100140.47
2023-04-22T00:04:39.457Z,100135.22
2023-04-22T00:05:33.212Z,100131.94
2023-04-22T00:06:28.180Z,100141.03
2023-04-22T00:07:22.517Z,100130.78
2023-04-22T00:08:10.542Z,100127.25
2023-04-22T00:08:51.193Z,100131.66
2023-04-22T00:09:31.357Z,100110.31
2023-04-22T00:10:12.253Z,100127.66
2023-04-22T00:10:53.273Z,100115.16
2023-04-22T00:11:34.399Z,100127.66
2023-04-22T00:12:15.307Z,100117.28
2023-04-22T00:12:56.198Z,100119.00
2023-04-22T00:13:37.090Z,100127.25
2023-04-22T00:14:18.152Z,100125.25
2023-04-22T00:14:58.320Z,100127.09
2023-04-22T00:15:39.188Z,100126.09
2023-04-22T00:16:19.398Z,100130.97
2023-04-22T00:17:00.188Z,100132.69
2023-04-22T00:17:40.406Z,100121.59
2023-04-22T00:18:20.170Z,100131.25
2023-04-22T00:19:00.363Z,100125.56
2023-04-22T00:19:41.322Z,100126.16
2023-04-22T00:20:23.974Z,100120.16
2023-04-22T00:21:05.178Z,100122.44
2023-04-22T00:21:45.237Z,100133.28
2023-04-22T00:22:26.225Z,100130.31
2023-04-22T00:23:06.242Z,100130.75
2023-04-22T00:23:47.146Z,100124.16
2023-04-22T00:24:27.378Z,100122.63
2023-04-22T00:25:08.181Z,100117.03
2023-04-22T00:25:48.252Z,100135.25
2023-04-22T00:26:28.273Z,100131.84
2023-04-22T00:27:08.378Z,100115.91
2023-04-22T00:27:48.191Z,100105.97
2023-04-22T00:28:29.257Z,100126.75
2023-04-22T00:29:10.203Z,100123.19
2023-04-22T00:29:50.279Z,100110.50
2023-04-22T00:30:31.136Z,100104.41
2023-04-22T00:31:11.401Z,100124.47
2023-04-22T00:31:53.198Z,100118.75
2023-04-22T00:32:33.254Z,100125.44
2023-04-22T00:33:14.217Z,100098.81
2023-04-22T00:33:54.255Z,100115.63
2023-04-22T00:34:34.179Z,100114.66
2023-04-22T00:35:15.286Z,100124.50
2023-04-22T00:35:56.167Z,100118.13
2023-04-22T00:36:36.242Z,100118.50
2023-04-22T00:37:17.178Z,100111.38
2023-04-22T00:37:59.658Z,100120.50
2023-04-22T00:38:40.204Z,100124.75
2023-04-22T00:39:20.217Z,100118.47
2023-04-22T00:40:01.125Z,100123.31
2023-04-22T00:40:41.230Z,100116.50
2023-04-22T00:41:22.150Z,100115.91
2023-04-22T00:42:02.248Z,100113.91
2023-04-22T00:42:44.243Z,100120.34
2023-04-22T00:43:25.282Z,100116.78
2023-04-22T00:44:07.126Z,100102.84
2023-04-22T00:44:48.510Z,100117.94
2023-04-22T00:45:29.163Z,100116.78
2023-04-22T00:46:09.262Z,100129.22
2023-04-22T00:46:49.186Z,100115.66
2023-04-22T00:47:29.534Z,100118.78
2023-04-22T00:48:10.220Z,100117.78
2023-04-22T00:48:50.272Z,100122.19
2023-04-22T00:49:34.106Z,100114.50
2023-04-22T00:50:15.303Z,100099.41
2023-04-22T00:50:55.133Z,100117.47
2023-04-22T00:51:35.250Z,100101.41
2023-04-22T00:52:15.192Z,100118.47
2023-04-22T00:52:55.211Z,100112.97
2023-04-22T00:53:36.169Z,100107.53
2023-04-22T00:54:16.197Z,100103.66
2023-04-22T00:54:56.239Z,100114.50
2023-04-22T00:55:36.216Z,100116.53
2023-04-22T00:56:18.097Z,100115.78
2023-04-22T00:56:58.821Z,100096.88
2023-04-22T00:57:41.120Z,100121.66
2023-04-22T00:58:21.247Z,100115.94
2023-04-22T00:59:02.235Z,100089.63
2023-04-22T00:59:42.381Z,100108.13
2023-04-22T01:00:23.136Z,100106.56
2023-04-22T01:01:04.307Z,100119.50
2023-04-22T01:01:45.108Z,100110.84
2023-04-22T01:02:25.388Z,100121.38
2023-04-22T01:03:07.307Z,100124.06
2023-04-22T01:03:48.514Z,100114.56
2023-04-22T01:04:29.268Z,100111.84
2023-04-22T01:05:09.654Z,100119.81
2023-04-22T01:05:51.167Z,100119.09
2023-04-22T01:06:32.495Z,100112.28
2023-04-22T01:07:13.152Z,100100.63
2023-04-22T01:07:53.232Z,100113.13
2023-04-22T01:08:36.134Z,100125.94
2023-04-22T01:09:16.223Z,100090.34
2023-04-22T01:09:57.246Z,100107.72
2023-04-22T01:10:37.197Z,100102.63
2023-04-22T01:11:17.137Z,100114.00
2023-04-22T01:11:57.429Z,100112.28
2023-04-22T01:12:38.166Z,100131.09
2023-04-22T01:13:18.215Z,100102.78
2023-04-22T01:13:59.124Z,100120.41
2023-04-22T01:14:39.386Z,100121.41
2023-04-22T01:15:19.166Z,100117.00
2023-04-22T01:16:00.456Z,100113.84
2023-04-22T01:16:42.242Z,100116.69
2023-04-22T01:17:24.725Z,100087.81
2023-04-22T01:18:07.175Z,100123.81
2023-04-22T01:18:47.300Z,100116.00
2023-04-22T01:19:28.094Z,100110.75
2023-04-22T01:20:12.301Z,100102.34
2023-04-22T01:20:52.227Z,100115.47
2023-04-22T01:21:34.367Z,100120.88
2023-04-22T01:22:15.094Z,100114.03
2023-04-22T01:22:58.948Z,100091.69
2023-04-22T01:23:40.131Z,100120.88
2023-04-22T01:24:20.510Z,100115.59
2023-04-22T01:25:01.123Z,100108.63
2023-04-22T01:25:43.194Z,100092.09
2023-04-22T01:26:24.140Z,100091.94
2023-04-22T01:27:04.177Z,100100.34
2023-04-22T01:27:46.149Z,100113.03
2023-04-22T01:28:26.350Z,100115.47
2023-04-22T01:29:09.082Z,100112.91
2023-04-22T01:29:49.272Z,100120.56
2023-04-22T01:30:30.097Z,100107.66
2023-04-22T01:31:11.204Z,100116.47
2023-04-22T01:31:52.134Z,100123.16
2023-04-22T01:32:32.292Z,100113.47
2023-04-22T01:33:14.147Z,100114.91
2023-04-22T01:33:54.232Z,100116.59
2023-04-22T01:34:35.117Z,100115.44
2023-04-22T01:35:17.208Z,100119.75
2023-04-22T01:35:58.104Z,100095.91
2023-04-22T01:36:38.198Z,100109.50
2023-04-22T01:37:18.128Z,100097.34
2023-04-22T01:37:58.422Z,100103.03
2023-04-22T01:38:40.140Z,100114.03
2023-04-22T01:39:20.244Z,100105.88
2023-04-22T01:40:00.115Z,100115.59
2023-04-22T01:40:41.212Z,100113.47
2023-04-22T01:41:21.062Z,100106.91
2023-04-22T01:42:02.304Z,100113.47
2023-04-22T01:42:43.127Z,100112.63
2023-04-22T01:43:23.216Z,100104.06
2023-04-22T01:44:06.165Z,100101.50
2023-04-22T01:44:46.275Z,100122.44
2023-04-22T01:45:27.106Z,100118.31
2023-04-22T01:46:12.215Z,100091.66
2023-04-22T01:46:53.098Z,100113.47
2023-04-22T01:47:33.284Z,100114.59
2023-04-22T01:48:14.234Z,100111.03
2023-04-22T01:48:54.316Z,100127.13
2023-04-22T01:49:34.084Z,100115.75
2023-04-22T01:50:15.224Z,100106.91
2023-04-22T01:50:56.084Z,100119.59
2023-04-22T01:51:37.180Z,100122.16
2023-04-22T01:52:18.094Z,100084.41
2023-04-22T01:52:59.136Z,100115.03
2023-04-22T01:53:39.110Z,100110.63
2023-04-22T01:54:19.154Z,100115.34
2023-04-22T01:55:00.079Z,100104.63
2023-04-22T01:55:40.343Z,100117.00
2023-04-22T01:56:21.153Z,100118.84
2023-04-22T01:57:23.078Z,100111.03
2023-04-22T01:58:19.075Z,100115.59
2023-04-22T01:59:00.095Z,100093.09
2023-04-22T01:59:40.409Z,100088.34
2023-04-22T02:00:22.072Z,100115.72
2023-04-22T02:01:02.220Z,100108.19
2023-04-22T02:01:42.146Z,100102.06
2023-04-22T02:02:22.650Z,100096.50
2023-04-22T02:03:04.142Z,100113.31
2023-04-22T02:03:45.356Z,100109.00
2023-04-22T02:04:26.131Z,100116.28
2023-04-22T02:05:06.275Z,100106.72
2023-04-22T02:05:47.111Z,100114.44
2023-04-22T02:06:27.491Z,100097.75
2023-04-22T02:07:08.068Z,100114.13
2023-04-22T02:07:48.234Z,100119.28
2023-04-22T02:08:28.071Z,100107.03
2023-04-22T02:09:09.185Z,100110.72
2023-04-22T02:09:50.866Z,100114.56
2023-04-22T02:10:31.180Z,100120.56
2023-04-22T02:11:12.069Z,100113.25
2023-04-22T02:11:52.161Z,100109.41
2023-04-22T02:12:32.141Z,100095.06
2023-04-22T02:13:12.194Z,100108.31
2023-04-22T02:13:52.088Z,100114.56
2023-04-22T02:14:32.139Z,100111.53
2023-04-22T02:15:13.161Z,100107.53
2023-04-22T02:15:53.279Z,100112.28
2023-04-22T02:16:33.213Z,100094.63
2023-04-22T02:17:13.182Z,100109.41
2023-04-22T02:17:54.068Z,100106.88
2023-04-22T02:18:34.167Z,100113.72
2023-04-22T02:19:15.259Z,100112.84
2023-04-22T02:19:55.345Z,100108.97
2023-04-22T02:20:35.170Z,100119.34
2023-04-22T02:21:15.191Z,100108.53
2023-04-22T02:21:56.072Z,100112.81
2023-04-22T02:22:36.712Z,100105.50
2023-04-22T02:23:18.077Z,100114.25
2023-04-22T02:23:58.140Z,100110.78
2023-04-22T02:24:38.043Z,100101.09
2023-04-22T02:25:20.889Z,100110.22
2023-04-22T02:26:02.118Z,100111.09
2023-04-22T02:26:43.164Z,100117.91
2023-04-22T02:27:24.047Z,100114.66
2023-04-22T02:28:05.210Z,100110.25
2023-04-22T02:28:45.038Z,100109.66
2023-04-22T02:29:25.182Z,100106.09
2023-04-22T02:30:05.049Z,100109.22
2023-04-22T02:30:45.226Z,100111.09
2023-04-22T02:31:26.190Z,100113.09
2023-04-22T02:32:07.128Z,100115.66
2023-04-22T02:32:48.050Z,100107.69
2023-04-22T02:33:28.139Z,100118.22
2023-04-22T02:34:08.061Z,100113.81
2023-04-22T02:34:48.136Z,100113.66
2023-04-22T02:35:29.082Z,100103.41
2023-04-22T02:36:09.157Z,100118.22
2023-04-22T02:36:49.054Z,100101.56
2023-04-22T02:37:29.313Z,100110.66
2023-04-22T02:38:10.078Z,100115.19
2023-04-22T02:38:50.131Z,100097.66
2023-04-22T02:39:32.057Z,100113.63
2023-04-22T02:40:13.162Z,100105.50
2023-04-22T02:40:54.015Z,100108.91
2023-04-22T02:41:34.166Z,100110.47
2023-04-22T02:42:14.058Z,100102.38
2023-04-22T02:42:54.213Z,100110.91
2023-04-22T02:43:35.064Z,100108.66
2023-04-22T02:44:15.172Z,100104.50
2023-04-22T02:44:55.027Z,100109.50
2023-04-22T02:45:35.418Z,100084.31
2023-04-22T02:46:19.028Z,100108.22
2023-04-22T02:46:59.204Z,100111.19
2023-04-22T02:47:40.087Z,100111.06
2023-04-22T02:48:21.253Z,100112.16
2023-04-22T02:49:01.019Z,100103.34
2023-04-22T02:49:41.465Z,100111.78
2023-04-22T02:50:23.029Z,100096.38
2023-04-22T02:51:03.159Z,100112.47
2023-04-22T02:51:46.044Z,100112.03
2023-04-22T02:52:26.084Z,100098.50
2023-04-22T02:53:06.037Z,100110.50
2023-04-22T02:53:46.175Z,100107.50
2023-04-22T02:54:26.091Z,100089.69
2023-04-22T02:55:06.483Z,100106.81
2023-04-22T02:55:48.021Z,100103.97
2023-04-22T02:56:28.169Z,100101.41
2023-04-22T02:57:09.003Z,100099.09
2023-04-22T02:57:49.108Z,100098.09
2023-04-22T02:58:36.063Z,100083.41
2023-04-22T02:59:10.104Z,100102.22
2023-04-22T02:59:57.012Z,100098.50
2023-04-22T03:00:31.207Z,100094.25
2023-04-22T03:01:19.174Z,100085.97
2023-04-22T03:01:53.127Z,100099.34
2023-04-22T03:02:40.223Z,100100.06
2023-04-22T03:03:14.454Z,100081.25
2023-04-22T03:03:56.102Z,100095.34
2023-04-22T03:04:38.059Z,100102.50
2023-04-22T03:05:17.984Z,100098.50
2023-04-22T03:05:58.179Z,100090.56
2023-04-22T03:06:39.050Z,100099.81
2023-04-22T03:07:19.171Z,100105.31
2023-04-22T03:08:01.013Z,100106.91
2023-04-22T03:08:41.101Z,100110.88
2023-04-22T03:09:21.069Z,100097.91
2023-04-22T03:10:01.121Z,100107.91
2023-04-22T03:10:41.025Z,100101.06
2023-04-22T03:11:21.160Z,100107.63
2023-04-22T03:12:02.031Z,100105.91
2023-04-22T03:12:42.098Z,100105.91
2023-04-22T03:13:21.977Z,100103.22
2023-04-22T03:14:02.099Z,100107.47
2023-04-22T03:14:42.067Z,100111.59
2023-04-22T03:15:22.127Z,100104.75
2023-04-22T03:16:02.037Z,100099.47
2023-04-22T03:16:43.182Z,100099.34
2023-04-22T03:17:23.039Z,100096.91
2023-04-22T03:18:03.423Z,100106.19
2023-04-22T03:18:42.979Z,100104.47
2023-04-22T03:19:23.050Z,100102.78
2023-04-22T03:20:03.011Z,100097.66
2023-04-22T03:20:43.085Z,100097.91
2023-04-22T03:21:23.033Z,100104.75
2023-04-22T03:22:03.121Z,100097.06
2023-04-22T03:22:43.010Z,100093.94
2023-04-22T03:23:23.096Z,100097.38
2023-04-22T03:24:03.010Z,100100.34
2023-04-22T03:24:43.057Z,100102.31
2023-04-22T03:25:22.985Z,100092.78
2023-04-22T03:26:03.139Z,100097.50
2023-04-22T03:26:42.998Z,100101.06
2023-04-22T03:27:23.175Z,100078.09
2023-04-22T03:28:03.020Z,100105.03
2023-04-22T03:28:43.078Z,100105.56
2023-04-22T03:29:22.988Z,100102.31
2023-04-22T03:30:03.170Z,100103.06
2023-04-22T03:30:43.043Z,100100.47
2023-04-22T03:31:23.188Z,100096.22
2023-04-22T03:32:03.019Z,100100.47
2023-04-22T03:32:44.173Z,100082.19
2023-04-22T03:33:24.983Z,100100.13
2023-04-22T03:34:05.278Z,100102.41
2023-04-22T03:34:45.014Z,100097.13
2023-04-22T03:35:26.116Z,100092.72
2023-04-22T03:36:06.028Z,100091.69
2023-04-22T03:36:47.077Z,100091.25
2023-04-22T03:37:26.969Z,100095.25
2023-04-22T03:38:07.778Z,100100.75
2023-04-22T03:38:47.946Z,100108.53
2023-04-22T03:39:28.074Z,100102.22
2023-04-22T03:40:07.984Z,100092.22
2023-04-22T03:41:29.989Z,100108.22
2023-04-22T03:42:10.181Z,100104.13
2023-04-22T03:42:49.979Z,100096.16
2023-04-22T03:43:30.054Z,100104.19
2023-04-22T03:44:09.968Z,100084.25
2023-04-22T03:44:50.144Z,100102.84
2023-04-22T03:45:30.100Z,100097.09
2023-04-22T03:46:10.905Z,100105.69
2023-04-22T03:46:51.013Z,100091.69
2023-04-22T03:47:31.079Z,100100.28
2023-04-22T03:48:11.970Z,100102.69
2023-04-22T03:48:52.110Z,100101.72
2023-04-22T03:49:32.962Z,100109.00
2023-04-22T03:50:14.037Z,100086.03
2023-04-22T03:50:53.920Z,100112.38
2023-04-22T03:51:34.098Z,100106.59
2023-04-22T03:52:15.007Z,100095.91
2023-04-22T03:52:55.077Z,100100.03
2023-04-22T03:53:35.976Z,100105.84
2023-04-22T03:54:16.139Z,100112.00
2023-04-22T03:54:55.968Z,100105.13
2023-04-22T03:55:36.358Z,100096.88
2023-04-22T03:56:16.962Z,100105.44
2023-04-22T03:56:57.028Z,100108.16
2023-04-22T03:57:36.994Z,100093.09
2023-04-22T03:58:17.021Z,100099.44
2023-04-22T03:58:57.948Z,100097.94
2023-04-22T03:59:38.443Z,100106.97
2023-04-22T04:00:20.020Z,100104.13
2023-04-22T04:01:00.089Z,100107.44
2023-04-22T04:01:39.980Z,100114.94
2023-04-22T04:02:20.300Z,100113.25
2023-04-22T04:03:00.047Z,100110.69
2023-04-22T04:03:40.992Z,100079.31
2023-04-22T04:04:22.142Z,100106.13
2023-04-22T04:05:02.764Z,100118.81
2023-04-22T04:05:44.073Z,100103.16
2023-04-22T04:06:24.057Z,100105.84
2023-04-22T04:07:04.916Z,100094.66
2023-04-22T04:07:45.040Z,100091.53
2023-04-22T04:08:26.035Z,100103.66
2023-04-22T04:09:06.143Z,100096.94
2023-04-22T04:09:45.969Z,100093.78
2023-04-22T04:10:26.070Z,100101.22
2023-04-22T04:11:05.946Z,100109.19
2023-04-22T04:11:46.031Z,100111.69
2023-04-22T04:12:26.931Z,100098.03
2023-04-22T04:13:07.053Z,100101.72
2023-04-22T04:13:47.225Z,100107.44
2023-04-22T04:14:28.153Z,100088.38
2023-04-22T04:15:07.940Z,100107.84
2023-04-22T04:15:48.080Z,100105.19
2023-04-22T04:16:29.026Z,100086.84
2023-04-22T04:17:09.802Z,100100.84
2023-04-22T04:17:51.022Z,100092.09
2023-04-22T04:18:31.024Z,100092.41
2023-04-22T04:19:13.039Z,100081.84
2023-04-22T04:19:53.087Z,100093.34
2023-04-22T04:20:33.931Z,100090.38
2023-04-22T04:21:14.026Z,100094.34
2023-04-22T04:21:53.973Z,100094.03
2023-04-22T04:22:35.026Z,100084.38
2023-04-22T04:23:14.926Z,100093.78
2023-04-22T04:23:55.078Z,100089.84
2023-04-22T04:24:35.932Z,100097.19
2023-04-22T04:25:16.031Z,100094.09
2023-04-22T04:25:56.989Z,100098.41
2023-04-22T04:26:37.889Z,100078.13
2023-04-22T04:27:18.949Z,100098.94
2023-04-22T04:27:59.082Z,100086.69
2023-04-22T04:28:40.922Z,100100.34
2023-04-22T04:29:21.047Z,100100.34
2023-04-22T04:30:01.927Z,100088.38
2023-04-22T04:30:42.358Z,100090.94
2023-04-22T04:31:21.953Z,100098.66
2023-04-22T04:32:02.066Z,100081.53
2023-04-22T04:32:43.013Z,100095.81
2023-04-22T04:33:23.121Z,100094.09
2023-04-22T04:34:06.921Z,100084.28
2023-04-22T04:34:47.232Z,100094.31
2023-04-22T04:35:27.957Z,100058.22
2023-04-22T04:36:08.807Z,100099.00
2023-04-22T04:36:49.913Z,100093.88
2023-04-22T04:37:30.075Z,100099.00
2023-04-22T04:38:12.947Z,100095.06
2023-04-22T04:38:55.209Z,100073.69
2023-04-22T04:39:36.947Z,100096.22
2023-04-22T04:40:17.596Z,100085.09
2023-04-22T04:40:58.922Z,100095.91
2023-04-22T04:41:39.019Z,100089.38
2023-04-22T04:42:20.968Z,100071.16
2023-04-22T04:43:03.438Z,100089.09
2023-04-22T04:43:43.889Z,100086.50
2023-04-22T04:44:24.056Z,100089.09
2023-04-22T04:45:04.938Z,100089.09
2023-04-22T04:45:49.086Z,100090.22
2023-04-22T04:46:30.000Z,100080.56
2023-04-22T04:47:10.035Z,100094.22
2023-04-22T04:47:49.946Z,100091.06
2023-04-22T04:48:30.033Z,100101.03
2023-04-22T04:49:15.920Z,100090.22
2023-04-22T04:49:58.576Z,100090.34
2023-04-22T04:50:39.889Z,100088.81
2023-04-22T04:51:20.572Z,100094.75
2023-04-22T04:52:01.748Z,100091.06
2023-04-22T04:52:41.976Z,100090.34
2023-04-22T04:53:22.914Z,100069.69
2023-04-22T04:54:16.909Z,100092.78
2023-04-22T04:55:10.889Z,100094.38
2023-04-22T04:56:04.911Z,100103.31
2023-04-22T04:56:58.886Z,100089.66
2023-04-22T04:57:39.882Z,100095.47
2023-04-22T04:58:20.085Z,100086.22
2023-04-22T04:58:59.884Z,100097.66
2023-04-22T04:59:40.415Z,100096.50
2023-04-22T05:00:21.925Z,100097.38
2023-04-22T05:01:02.030Z,100099.22
2023-04-22T05:01:42.980Z,100097.09
2023-04-22T05:02:23.162Z,100100.50
2023-04-22T05:02:57.122Z,100081.44
2023-04-22T05:03:44.079Z,100090.41
2023-04-22T05:04:18.162Z,100067.19
2023-04-22T05:05:04.991Z,100087.44
2023-04-22T05:05:38.965Z,100096.56
2023-04-22T05:06:25.888Z,100098.25
2023-04-22T05:07:00.100Z,100089.16
2023-04-22T05:07:46.918Z,100091.72
2023-04-22T05:08:20.965Z,100092.00
2023-04-22T05:09:08.207Z,100092.56
2023-04-22T05:09:43.088Z,100088.88
2023-04-22T05:10:30.897Z,100073.50
2023-04-22T05:11:05.006Z,100081.63
2023-04-22T05:11:51.881Z,100093.44
2023-04-22T05:12:26.508Z,100098.59
2023-04-22T05:13:06.886Z,100100.28
2023-04-22T05:13:46.981Z,100095.59
2023-04-22T05:14:26.871Z,100091.19
2023-04-22T05:15:07.039Z,100097.72
2023-04-22T05:15:46.893Z,100095.75
2023-04-22T05:16:27.023Z,100082.22
2023-04-22T05:17:06.899Z,100101.16
2023-04-22T05:17:47.029Z,100091.63
2023-04-22T05:18:27.895Z,100097.16
2023-04-22T05:19:08.560Z,100078.47
2023-04-22T05:19:48.890Z,100101.69
2023-04-22T05:20:29.028Z,100090.84
2023-04-22T05:21:10.876Z,100085.44
2023-04-22T05:21:50.984Z,100094.88
2023-04-22T05:22:31.838Z,100078.78
2023-04-22T05:23:11.985Z,100095.88
2023-04-22T05:23:52.948Z,100078.94
2023-04-22T05:24:32.988Z,100103.69
2023-04-22T05:25:13.889Z,100097.88
2023-04-22T05:25:53.974Z,100098.56
2023-04-22T05:26:33.886Z,100098.03
2023-04-22T05:27:15.109Z,100094.91
2023-04-22T05:27:54.871Z,100084.94
2023-04-22T05:28:34.948Z,100092.91
2023-04-22T05:29:14.884Z,100100.19
2023-04-22T05:29:55.947Z,100087.81
2023-04-22T05:30:35.887Z,100087.81
2023-04-22T05:31:16.107Z,100097.22
2023-04-22T05:31:56.959Z,100097.34
2023-04-22T05:32:36.958Z,100099.03
2023-04-22T05:33:16.896Z,100088.38
2023-04-22T05:33:56.934Z,100100.91
2023-04-22T05:34:37.885Z,100098.91
2023-04-22T05:35:17.952Z,100086.09
2023-04-22T05:35:58.885Z,100067.16
2023-04-22T05:36:38.989Z,100093.78
2023-04-22T05:37:19.888Z,100101.59
2023-04-22T05:37:59.946Z,100100.09
2023-04-22T05:38:39.849Z,100098.94
2023-04-22T05:39:19.980Z,100085.56
2023-04-22T05:39:59.927Z,100105.91
2023-04-22T05:40:40.565Z,100104.91
2023-04-22T05:41:21.861Z,100088.66
2023-04-22T05:42:02.676Z,100089.41
2023-04-22T05:42:42.847Z,100098.34
2023-04-22T05:43:22.969Z,100090.38
2023-04-22T05:44:02.870Z,100085.25
2023-04-22T05:44:42.994Z,100095.50
2023-04-22T05:45:23.863Z,100094.78
2023-04-22T05:46:04.028Z,100083.81
2023-04-22T05:46:43.874Z,100098.06
2023-04-22T05:47:23.993Z,100083.09
2023-04-22T05:48:03.901Z,100090.91
2023-04-22T05:48:43.973Z,100093.75
2023-04-22T05:49:24.830Z,100094.59
2023-04-22T05:50:05.128Z,100091.63
2023-04-22T05:50:44.921Z,100083.94
2023-04-22T05:51:24.940Z,100100.28
2023-04-22T05:52:04.870Z,100102.13
2023-04-22T05:52:44.958Z,100093.16
2023-04-22T05:53:25.948Z,100096.97
2023-04-22T05:54:06.073Z,100086.00
2023-04-22T05:54:45.878Z,100085.47
2023-04-22T05:55:25.935Z,100098.81
2023-04-22T05:56:05.894Z,100099.34
2023-04-22T05:56:47.978Z,100095.09
2023-04-22T05:57:28.836Z,100100.94
2023-04-22T05:58:08.958Z,100096.22
2023-04-22T05:58:48.894Z,100086.69
2023-04-22T05:59:29.025Z,100095.63
2023-04-22T06:00:11.827Z,100100.03
2023-04-22T06:00:51.978Z,100097.88
2023-04-22T06:01:32.859Z,100109.31
2023-04-22T06:02:13.104Z,100105.56
2023-04-22T06:02:53.021Z,100101.16
2023-04-22T06:03:33.152Z,100107.53
2023-04-22T06:04:14.011Z,100085.91
2023-04-22T06:04:54.212Z,100105.78
2023-04-22T06:05:35.871Z,100100.91
2023-04-22T06:06:15.932Z,100107.59
2023-04-22T06:06:57.866Z,100089.53
2023-04-22T06:07:37.976Z,100106.91
2023-04-22T06:08:17.903Z,100099.22
2023-04-22T06:08:58.483Z,100097.25
2023-04-22T06:09:40.128Z,100077.59
2023-04-22T06:10:20.910Z,100103.78
2023-04-22T06:11:00.860Z,100093.06
2023-04-22T06:11:40.977Z,100103.31
2023-04-22T06:12:20.857Z,100089.22
2023-04-22T06:13:01.300Z,100098.84
2023-04-22T06:13:41.821Z,100099.84
2023-04-22T06:14:22.044Z,100107.94
2023-04-22T06:15:01.831Z,100103.88
2023-04-22T06:15:41.956Z,100104.44
2023-04-22T06:16:22.832Z,100107.00
2023-04-22T06:17:02.941Z,100099.88
2023-04-22T06:17:43.904Z,100111.97
2023-04-22T06:18:23.997Z,100110.13
2023-04-22T06:19:03.817Z,100106.72
2023-04-22T06:19:43.908Z,100108.69
2023-04-22T06:20:23.804Z,100100.56
2023-04-22T06:21:03.895Z,100099.25
2023-04-22T06:21:46.800Z,100111.19
2023-04-22T06:22:26.970Z,100102.06
2023-04-22T06:23:06.854Z,100111.03
2023-04-22T06:23:47.920Z,100111.34
2023-04-22T06:24:28.827Z,100109.03
2023-04-22T06:25:09.909Z,100106.25
2023-04-22T06:25:50.851Z,100101.19
2023-04-22T06:26:31.017Z,100102.59
2023-04-22T06:27:10.778Z,100102.44
2023-04-22T06:27:50.886Z,100093.69
2023-04-22T06:28:31.889Z,100088.59
2023-04-22T06:29:11.946Z,100093.22
2023-04-22T06:29:51.816Z,100097.50
2023-04-22T06:30:33.061Z,100091.91
2023-04-22T06:31:12.913Z,100070.28
2023-04-22T06:31:54.623Z,100093.31
2023-04-22T06:32:37.789Z,100099.59
2023-04-22T06:33:17.900Z,100096.56
2023-04-22T06:33:58.788Z,100101.84
2023-04-22T06:34:38.857Z,100092.38
2023-04-22T06:35:18.853Z,100095.63
2023-04-22T06:35:58.951Z,100092.91
2023-04-22T06:36:43.877Z,100093.94
2023-04-22T06:37:26.937Z,100096.03
2023-04-22T06:38:07.814Z,100090.25
2023-04-22T06:38:47.858Z,100097.63
2023-04-22T06:39:27.791Z,100095.38
2023-04-22T06:40:07.953Z,100096.94
2023-04-22T06:40:47.759Z,100077.31
2023-04-22T06:41:28.892Z,100094.94
2023-04-22T06:42:09.766Z,100077.69
2023-04-22T06:42:49.911Z,100094.81
2023-04-22T06:43:29.784Z,100101.81
2023-04-22T06:44:11.903Z,100088.00
2023-04-22T06:44:51.783Z,100092.66
2023-04-22T06:45:31.856Z,100079.69
2023-04-22T06:46:12.769Z,100084.31
2023-04-22T06:46:53.773Z,100098.03
2023-04-22T06:47:34.855Z,100079.53
2023-04-22T06:48:28.795Z,100089.47
2023-04-22T06:49:22.831Z,100093.94
2023-04-22T06:50:09.858Z,100093.28
2023-04-22T06:50:43.901Z,100087.19
2023-04-22T06:51:30.779Z,100090.97
2023-04-22T06:52:04.855Z,100084.84
2023-04-22T06:52:51.812Z,100097.50
2023-04-22T06:53:25.888Z,100091.53
2023-04-22T06:54:13.805Z,100087.13
2023-04-22T06:54:47.838Z,100094.13
2023-04-22T06:55:34.793Z,100094.50
2023-04-22T06:56:08.850Z,100088.91
2023-04-22T06:56:56.775Z,100094.50
2023-04-22T06:57:30.916Z,100093.16
2023-04-22T06:58:17.830Z,100085.84
2023-04-22T06:58:51.867Z,100092.13
2023-04-22T06:59:38.981Z,100098.75
2023-04-22T07:00:13.862Z,100081.22
2023-04-22T07:00:53.815Z,100090.63
2023-04-22T07:01:33.946Z,100088.47
2023-04-22T07:02:15.008Z,100082.00
2023-04-22T07:02:55.003Z,100086.09
2023-04-22T07:03:36.032Z,100087.44
2023-04-22T07:04:17.047Z,100073.47
2023-04-22T07:04:56.764Z,100064.28
2023-04-22T07:05:39.807Z,100072.50
2023-04-22T07:06:20.809Z,100090.41
2023-04-22T07:07:00.924Z,100078.69
2023-04-22T07:07:40.744Z,100079.91
2023-04-22T07:08:20.919Z,100084.31
2023-04-22T07:09:01.816Z,100081.13
2023-04-22T07:09:42.062Z,100078.03
2023-04-22T07:10:22.863Z,100079.91
2023-04-22T07:11:04.881Z,100091.66
2023-04-22T07:11:45.831Z,100085.03
2023-04-22T07:12:26.385Z,100091.53
2023-04-22T07:13:06.826Z,100083.53
2023-04-22T07:13:46.889Z,100078.09
2023-04-22T07:14:27.766Z,100088.31
2023-04-22T07:15:09.386Z,100088.31
2023-04-22T07:15:49.781Z,100076.72
2023-04-22T07:16:29.924Z,100085.06
2023-04-22T07:17:09.780Z,100086.81
2023-04-22T07:17:51.112Z,100085.28
2023-04-22T07:18:31.773Z,100084.97
2023-04-22T07:19:11.996Z,100078.38
2023-04-22T07:19:51.798Z,100083.63
2023-04-22T07:20:31.900Z,100085.69
2023-04-22T07:21:12.753Z,100086.38
2023-04-22T07:21:52.909Z,100087.72
2023-04-22T07:22:33.775Z,100083.63
2023-04-22T07:23:13.860Z,100080.78
2023-04-22T07:23:54.741Z,100074.66
2023-04-22T07:24:34.875Z,100073.47
2023-04-22T07:25:15.723Z,100081.97
2023-04-22T07:25:55.822Z,100087.06
2023-04-22T07:26:38.719Z,100066.50
2023-04-22T07:27:18.801Z,100082.69
2023-04-22T07:27:58.798Z,100083.53
2023-04-22T07:28:39.870Z,100071.63
2023-04-22T07:29:20.738Z,100082.31
2023-04-22T07:30:00.905Z,100081.66
2023-04-22T07:30:41.747Z,100073.13
2023-04-22T07:31:21.919Z,100093.06
2023-04-22T07:32:02.844Z,100082.34
2023-04-22T07:32:42.875Z,100083.56
2023-04-22T07:33:22.822Z,100086.28
2023-04-22T07:34:02.871Z,100073.50
2023-04-22T07:34:43.761Z,100074.84
2023-04-22T07:35:23.925Z,100078.59
2023-04-22T07:36:04.014Z,100072.66
2023-04-22T07:36:43.834Z,100081.34
2023-04-22T07:37:23.722Z,100077.06
2023-04-22T07:38:04.036Z,100078.97
2023-04-22T07:38:44.807Z,100075.69
2023-04-22T07:39:25.155Z,100069.06
2023-04-22T07:40:04.780Z,100083.38
2023-04-22T07:40:46.861Z,100081.97
2023-04-22T07:41:26.774Z,100074.84
2023-04-22T07:42:07.392Z,100080.31
2023-04-22T07:42:48.714Z,100078.75
2023-04-22T07:43:28.908Z,100080.28
2023-04-22T07:44:09.932Z,100079.78
2023-04-22T07:44:49.852Z,100077.25
2023-04-22T07:45:29.730Z,100079.44
2023-04-22T07:46:09.850Z,100064.09
2023-04-22T07:46:50.713Z,100071.28